sensor_id;sensor_type;location;lat;lon;timestamp;pressure;altitude;pressure_sealevel;temperature;humidity
40794;BME280;26502;51.886;15.604;2023-02-11T00:02:21;102160.44;;;1.37;72.32
40794;BME280;26502;51.886;15.604;2023-02-11T00:07:29;102147.21;;;1.34;72.21
40794;BME280;26502;51.886;15.604;2023-02-11T00:12:37;102145.02;;;1.31;72.46
40794;BME280;26502;51.886;15.604;2023-02-11T00:17:44;102158.11;;;1.30;72.34
40794;BME280;26502;51.886;15.604;2023-02-11T00:22:54;102151.77;;;1.29;72.07
40794;BME280;26502;51.886;15.604;2023-02-11T00:28:01;102128.60;;;1.26;72.34
40794;BME280;26502;51.886;15.604;2023-02-11T00:33:09;102123.81;;;1.24;72.16
40794;BME280;26502;51.886;15.604;2023-02-11T00:38:16;102120.95;;;1.22;72.04
40794;BME280;26502;51.886;15.604;2023-02-11T00:43:27;102104.63;;;1.20;72.09
40794;BME280;26502;51.886;15.604;2023-02-11T00:48:35;102086.19;;;1.18;72.10
40794;BME280;26502;51.886;15.604;2023-02-11T00:53:42;102072.31;;;1.16;72.01
40794;BME280;26502;51.886;15.604;2023-02-11T00:58:49;102063.28;;;1.12;72.04
40794;BME280;26502;51.886;15.604;2023-02-11T01:03:57;102069.31;;;1.09;72.01
40794;BME280;26502;51.886;15.604;2023-02-11T01:09:05;102060.30;;;1.07;72.05
40794;BME280;26502;51.886;15.604;2023-02-11T01:14:14;102053.60;;;1.04;72.27
40794;BME280;26502;51.886;15.604;2023-02-11T01:19:21;102039.21;;;1.02;72.14
40794;BME280;26502;51.886;15.604;2023-02-11T01:24:29;102044.13;;;1.03;71.91
40794;BME280;26502;51.886;15.604;2023-02-11T01:29:39;102048.16;;;1.03;71.96
40794;BME280;26502;51.886;15.604;2023-02-11T01:34:45;102024.11;;;1.00;71.97
40794;BME280;26502;51.886;15.604;2023-02-11T01:39:52;102023.06;;;1.01;71.98
40794;BME280;26502;51.886;15.604;2023-02-11T01:45:03;102008.52;;;1.00;71.94
40794;BME280;26502;51.886;15.604;2023-02-11T01:50:30;101986.30;;;1.00;72.08
40794;BME280;26502;51.886;15.604;2023-02-11T01:55:38;101988.54;;;0.98;72.08
40794;BME280;26502;51.886;15.604;2023-02-11T02:01:04;101987.01;;;1.00;72.01
40794;BME280;26502;51.886;15.604;2023-02-11T02:06:18;101984.20;;;1.00;71.87
40794;BME280;26502;51.886;15.604;2023-02-11T02:11:29;101966.85;;;0.99;71.98
40794;BME280;26502;51.886;15.604;2023-02-11T02:16:39;101943.75;;;0.98;72.15
40794;BME280;26502;51.886;15.604;2023-02-11T02:22:22;101927.89;;;1.00;72.32
40794;BME280;26502;51.886;15.604;2023-02-11T02:27:44;101917.95;;;1.01;72.08
40794;BME280;26502;51.886;15.604;2023-02-11T02:33:11;101935.97;;;1.02;72.08
40794;BME280;26502;51.886;15.604;2023-02-11T02:38:26;101956.23;;;1.07;72.08
40794;BME280;26502;51.886;15.604;2023-02-11T02:43:39;101962.84;;;1.12;72.37
40794;BME280;26502;51.886;15.604;2023-02-11T02:48:48;101951.42;;;1.17;72.22
40794;BME280;26502;51.886;15.604;2023-02-11T02:54:20;101949.88;;;1.24;72.19
40794;BME280;26502;51.886;15.604;2023-02-11T02:59:39;101943.47;;;1.27;72.25
40794;BME280;26502;51.886;15.604;2023-02-11T03:04:55;101941.83;;;1.31;72.19
40794;BME280;26502;51.886;15.604;2023-02-11T03:10:10;101922.23;;;1.32;72.22
40794;BME280;26502;51.886;15.604;2023-02-11T03:15:20;101922.77;;;1.32;72.43
40794;BME280;26502;51.886;15.604;2023-02-11T03:20:31;101922.50;;;1.36;72.18
40794;BME280;26502;51.886;15.604;2023-02-11T03:25:43;101912.80;;;1.40;72.37
40794;BME280;26502;51.886;15.604;2023-02-11T03:30:55;101912.40;;;1.45;72.25
40794;BME280;26502;51.886;15.604;2023-02-11T03:36:07;101909.80;;;1.52;72.37
40794;BME280;26502;51.886;15.604;2023-02-11T03:41:20;101911.86;;;1.59;72.43
40794;BME280;26502;51.886;15.604;2023-02-11T03:46:32;101898.77;;;1.67;72.51
40794;BME280;26502;51.886;15.604;2023-02-11T03:51:41;101892.86;;;1.69;72.27
40794;BME280;26502;51.886;15.604;2023-02-11T03:56:52;101894.00;;;1.74;72.26
40794;BME280;26502;51.886;15.604;2023-02-11T04:02:00;101895.45;;;1.84;72.32
40794;BME280;26502;51.886;15.604;2023-02-11T04:07:07;101886.27;;;1.95;72.46
40794;BME280;26502;51.886;15.604;2023-02-11T04:12:14;101881.98;;;1.99;72.50
40794;BME280;26502;51.886;15.604;2023-02-11T04:17:22;101864.20;;;2.04;72.62
40794;BME280;26502;51.886;15.604;2023-02-11T04:22:30;101843.48;;;2.10;72.55
40794;BME280;26502;51.886;15.604;2023-02-11T04:27:37;101853.91;;;2.14;72.94
40794;BME280;26502;51.886;15.604;2023-02-11T04:32:44;101857.51;;;2.19;73.29
40794;BME280;26502;51.886;15.604;2023-02-11T04:37:52;101859.96;;;2.18;73.69
40794;BME280;26502;51.886;15.604;2023-02-11T04:42:59;101848.92;;;2.18;74.30
40794;BME280;26502;51.886;15.604;2023-02-11T04:48:08;101855.85;;;2.15;74.09
40794;BME280;26502;51.886;15.604;2023-02-11T04:53:17;101840.21;;;2.13;74.85
40794;BME280;26502;51.886;15.604;2023-02-11T04:58:24;101833.31;;;2.10;75.00
40794;BME280;26502;51.886;15.604;2023-02-11T05:03:32;101831.18;;;2.09;75.50
40794;BME280;26502;51.886;15.604;2023-02-11T05:08:39;101826.46;;;2.09;76.05
40794;BME280;26502;51.886;15.604;2023-02-11T05:13:47;101812.02;;;2.05;76.02
40794;BME280;26502;51.886;15.604;2023-02-11T05:18:54;101809.10;;;2.08;76.52
40794;BME280;26502;51.886;15.604;2023-02-11T05:24:02;101802.98;;;2.10;76.83
40794;BME280;26502;51.886;15.604;2023-02-11T05:29:09;101802.38;;;2.14;77.19
40794;BME280;26502;51.886;15.604;2023-02-11T05:34:16;101811.10;;;2.12;76.96
40794;BME280;26502;51.886;15.604;2023-02-11T05:39:24;101801.96;;;2.11;77.18
40794;BME280;26502;51.886;15.604;2023-02-11T05:44:32;101809.70;;;2.12;77.19
40794;BME280;26502;51.886;15.604;2023-02-11T05:49:40;101806.48;;;2.18;77.26
40794;BME280;26502;51.886;15.604;2023-02-11T05:54:49;101796.46;;;2.16;77.24
40794;BME280;26502;51.886;15.604;2023-02-11T05:59:57;101800.17;;;2.17;77.61
40794;BME280;26502;51.886;15.604;2023-02-11T06:05:04;101789.76;;;2.23;78.51
40794;BME280;26502;51.886;15.604;2023-02-11T06:10:12;101782.48;;;2.18;78.21
40794;BME280;26502;51.886;15.604;2023-02-11T06:15:19;101770.48;;;2.14;78.08
40794;BME280;26502;51.886;15.604;2023-02-11T06:20:27;101766.14;;;2.16;78.45
40794;BME280;26502;51.886;15.604;2023-02-11T06:25:35;101756.84;;;2.15;78.53
40794;BME280;26502;51.886;15.604;2023-02-11T06:30:43;101758.02;;;2.21;78.47
40794;BME280;26502;51.886;15.604;2023-02-11T06:35:51;101752.33;;;2.27;78.85
40794;BME280;26502;51.886;15.604;2023-02-11T06:40:58;101741.85;;;2.29;78.49
40794;BME280;26502;51.886;15.604;2023-02-11T06:46:07;101753.17;;;2.35;78.41
40794;BME280;26502;51.886;15.604;2023-02-11T06:51:15;101772.23;;;2.41;78.77
40794;BME280;26502;51.886;15.604;2023-02-11T06:56:24;101780.06;;;2.48;78.58
40794;BME280;26502;51.886;15.604;2023-02-11T07:01:32;101777.75;;;2.56;78.78
40794;BME280;26502;51.886;15.604;2023-02-11T07:06:42;101780.58;;;2.57;78.91
40794;BME280;26502;51.886;15.604;2023-02-11T07:11:49;101778.85;;;2.58;78.58
40794;BME280;26502;51.886;15.604;2023-02-11T07:16:57;101783.48;;;2.62;79.17
40794;BME280;26502;51.886;15.604;2023-02-11T07:22:04;101788.13;;;2.67;79.17
40794;BME280;26502;51.886;15.604;2023-02-11T07:27:11;101791.73;;;2.72;79.23
40794;BME280;26502;51.886;15.604;2023-02-11T07:32:19;101791.35;;;2.71;79.51
40794;BME280;26502;51.886;15.604;2023-02-11T07:37:27;101788.62;;;2.76;79.86
40794;BME280;26502;51.886;15.604;2023-02-11T07:42:35;101777.30;;;2.80;79.92
40794;BME280;26502;51.886;15.604;2023-02-11T07:47:44;101776.15;;;2.84;80.35
40794;BME280;26502;51.886;15.604;2023-02-11T07:52:53;101764.45;;;2.88;80.12
40794;BME280;26502;51.886;15.604;2023-02-11T07:58:00;101756.44;;;2.91;80.03
40794;BME280;26502;51.886;15.604;2023-02-11T08:03:08;101753.48;;;2.93;79.78
40794;BME280;26502;51.886;15.604;2023-02-11T08:08:15;101759.92;;;2.90;80.14
40794;BME280;26502;51.886;15.604;2023-02-11T08:13:23;101766.09;;;2.91;80.04
40794;BME280;26502;51.886;15.604;2023-02-11T08:18:33;101759.50;;;2.97;80.11
40794;BME280;26502;51.886;15.604;2023-02-11T08:23:41;101745.91;;;3.03;80.32
40794;BME280;26502;51.886;15.604;2023-02-11T08:28:53;101743.15;;;3.05;80.56
40794;BME280;26502;51.886;15.604;2023-02-11T08:34:03;101736.70;;;3.08;79.94
40794;BME280;26502;51.886;15.604;2023-02-11T08:39:15;101751.02;;;3.15;80.52
40794;BME280;26502;51.886;15.604;2023-02-11T08:44:25;101760.99;;;3.25;80.49
40794;BME280;26502;51.886;15.604;2023-02-11T08:49:34;101771.14;;;3.34;80.24
40794;BME280;26502;51.886;15.604;2023-02-11T08:54:42;101772.14;;;3.43;80.15
40794;BME280;26502;51.886;15.604;2023-02-11T08:59:50;101782.09;;;3.50;80.29
40794;BME280;26502;51.886;15.604;2023-02-11T09:04:59;101763.18;;;3.55;80.11
40794;BME280;26502;51.886;15.604;2023-02-11T09:10:07;101772.37;;;3.58;80.55
40794;BME280;26502;51.886;15.604;2023-02-11T09:15:15;101769.05;;;3.59;79.97
40794;BME280;26502;51.886;15.604;2023-02-11T09:20:23;101759.06;;;3.63;79.93
40794;BME280;26502;51.886;15.604;2023-02-11T09:25:31;101751.75;;;3.66;79.87
40794;BME280;26502;51.886;15.604;2023-02-11T09:30:39;101729.61;;;3.67;80.28
40794;BME280;26502;51.886;15.604;2023-02-11T09:35:47;101715.23;;;3.68;80.19
40794;BME280;26502;51.886;15.604;2023-02-11T09:40:55;101716.55;;;3.75;80.30
40794;BME280;26502;51.886;15.604;2023-02-11T09:46:03;101717.56;;;3.87;80.19
40794;BME280;26502;51.886;15.604;2023-02-11T09:51:18;101732.10;;;3.98;79.85
40794;BME280;26502;51.886;15.604;2023-02-11T09:56:28;101756.98;;;4.07;79.91
40794;BME280;26502;51.886;15.604;2023-02-11T10:01:43;101751.42;;;4.12;79.89
40794;BME280;26502;51.886;15.604;2023-02-11T10:06:54;101785.21;;;4.15;79.60
40794;BME280;26502;51.886;15.604;2023-02-11T10:12:15;101777.87;;;4.19;79.26
40794;BME280;26502;51.886;15.604;2023-02-11T10:17:28;101776.81;;;4.19;79.18
40794;BME280;26502;51.886;15.604;2023-02-11T10:22:42;101751.92;;;4.26;79.05
40794;BME280;26502;51.886;15.604;2023-02-11T10:27:52;101748.80;;;4.30;78.91
40794;BME280;26502;51.886;15.604;2023-02-11T10:33:05;101752.70;;;4.34;78.77
40794;BME280;26502;51.886;15.604;2023-02-11T10:38:18;101761.05;;;4.41;78.65
40794;BME280;26502;51.886;15.604;2023-02-11T10:43:27;101755.52;;;4.51;78.57
40794;BME280;26502;51.886;15.604;2023-02-11T10:48:44;101746.63;;;4.58;78.16
40794;BME280;26502;51.886;15.604;2023-02-11T10:54:15;101746.32;;;4.64;78.00
40794;BME280;26502;51.886;15.604;2023-02-11T10:59:28;101742.17;;;4.72;77.92
40794;BME280;26502;51.886;15.604;2023-02-11T11:04:39;101743.30;;;4.80;78.08
40794;BME280;26502;51.886;15.604;2023-02-11T11:09:53;101729.27;;;4.87;77.65
40794;BME280;26502;51.886;15.604;2023-02-11T11:15:13;101729.62;;;4.88;77.86
40794;BME280;26502;51.886;15.604;2023-02-11T11:20:26;101705.68;;;4.86;77.96
40794;BME280;26502;51.886;15.604;2023-02-11T11:25:37;101675.60;;;4.88;78.05
40794;BME280;26502;51.886;15.604;2023-02-11T11:30:47;101694.77;;;4.86;78.35
40794;BME280;26502;51.886;15.604;2023-02-11T11:36:04;101689.69;;;4.90;78.25
40794;BME280;26502;51.886;15.604;2023-02-11T11:41:21;101686.52;;;4.90;78.54
40794;BME280;26502;51.886;15.604;2023-02-11T11:46:32;101684.77;;;4.91;78.53
40794;BME280;26502;51.886;15.604;2023-02-11T11:51:43;101690.08;;;4.94;78.76
40794;BME280;26502;51.886;15.604;2023-02-11T11:56:56;101697.52;;;5.01;78.66
40794;BME280;26502;51.886;15.604;2023-02-11T12:02:23;101702.80;;;5.02;79.06
40794;BME280;26502;51.886;15.604;2023-02-11T12:07:47;101710.92;;;5.05;78.98
40794;BME280;26502;51.886;15.604;2023-02-11T12:13:08;101710.76;;;5.06;79.14
40794;BME280;26502;51.886;15.604;2023-02-11T12:18:29;101691.36;;;5.03;79.11
40794;BME280;26502;51.886;15.604;2023-02-11T12:23:54;101663.36;;;5.05;79.41
40794;BME280;26502;51.886;15.604;2023-02-11T12:29:16;101671.15;;;5.08;79.63
40794;BME280;26502;51.886;15.604;2023-02-11T12:34:47;101678.21;;;5.11;79.84
40794;BME280;26502;51.886;15.604;2023-02-11T12:40:08;101688.45;;;5.15;79.88
40794;BME280;26502;51.886;15.604;2023-02-11T12:45:37;101663.63;;;5.18;79.98
40794;BME280;26502;51.886;15.604;2023-02-11T12:50:55;101662.95;;;5.23;80.34
40794;BME280;26502;51.886;15.604;2023-02-11T12:56:08;101662.80;;;5.24;80.29
40794;BME280;26502;51.886;15.604;2023-02-11T13:01:25;101664.36;;;5.24;80.50
40794;BME280;26502;51.886;15.604;2023-02-11T13:06:37;101655.17;;;5.18;80.80
40794;BME280;26502;51.886;15.604;2023-02-11T13:11:50;101650.61;;;5.17;81.23
40794;BME280;26502;51.886;15.604;2023-02-11T13:17:10;101644.23;;;5.11;81.47
40794;BME280;26502;51.886;15.604;2023-02-11T13:22:27;101639.82;;;5.09;82.16
40794;BME280;26502;51.886;15.604;2023-02-11T13:27:47;101643.66;;;5.04;82.42
40794;BME280;26502;51.886;15.604;2023-02-11T13:33:31;101641.73;;;5.06;82.90
40794;BME280;26502;51.886;15.604;2023-02-11T13:38:39;101640.12;;;5.01;83.13
40794;BME280;26502;51.886;15.604;2023-02-11T13:43:59;101637.98;;;4.98;83.65
40794;BME280;26502;51.886;15.604;2023-02-11T13:49:14;101633.74;;;4.94;84.10
40794;BME280;26502;51.886;15.604;2023-02-11T13:54:28;101643.21;;;4.89;84.30
40794;BME280;26502;51.886;15.604;2023-02-11T13:59:49;101653.08;;;4.89;84.10
40794;BME280;26502;51.886;15.604;2023-02-11T14:05:21;101656.42;;;4.91;84.27
40794;BME280;26502;51.886;15.604;2023-02-11T14:10:55;101662.10;;;4.95;84.71
40794;BME280;26502;51.886;15.604;2023-02-11T14:16:11;101665.95;;;4.92;84.72
40794;BME280;26502;51.886;15.604;2023-02-11T14:21:21;101658.39;;;4.95;84.92
40794;BME280;26502;51.886;15.604;2023-02-11T14:26:38;101668.23;;;4.93;85.12
40794;BME280;26502;51.886;15.604;2023-02-11T14:31:56;101677.91;;;4.92;85.00
40794;BME280;26502;51.886;15.604;2023-02-11T14:37:27;101679.86;;;4.93;84.88
40794;BME280;26502;51.886;15.604;2023-02-11T14:42:40;101692.55;;;4.97;85.16
40794;BME280;26502;51.886;15.604;2023-02-11T14:47:52;101718.25;;;4.96;85.19
40794;BME280;26502;51.886;15.604;2023-02-11T14:53:04;101729.89;;;5.00;85.28
40794;BME280;26502;51.886;15.604;2023-02-11T14:58:19;101729.55;;;5.00;85.57
40794;BME280;26502;51.886;15.604;2023-02-11T15:03:34;101726.19;;;4.98;85.54
40794;BME280;26502;51.886;15.604;2023-02-11T15:08:44;101734.48;;;5.01;85.89
40794;BME280;26502;51.886;15.604;2023-02-11T15:13:53;101725.13;;;4.99;85.81
40794;BME280;26502;51.886;15.604;2023-02-11T15:19:05;101733.05;;;4.96;85.69
40794;BME280;26502;51.886;15.604;2023-02-11T15:24:25;101727.76;;;4.96;85.99
40794;BME280;26502;51.886;15.604;2023-02-11T15:29:39;101735.48;;;4.92;85.87
40794;BME280;26502;51.886;15.604;2023-02-11T15:34:49;101730.56;;;4.94;86.05
40794;BME280;26502;51.886;15.604;2023-02-11T15:45:38;101738.98;;;4.91;86.72
40794;BME280;26502;51.886;15.604;2023-02-11T15:50:53;101756.38;;;4.88;86.69
40794;BME280;26502;51.886;15.604;2023-02-11T15:56:11;101760.61;;;4.88;86.77
40794;BME280;26502;51.886;15.604;2023-02-11T16:01:30;101769.24;;;4.89;86.68
40794;BME280;26502;51.886;15.604;2023-02-11T16:06:43;101772.45;;;4.92;86.80
40794;BME280;26502;51.886;15.604;2023-02-11T16:12:02;101771.21;;;4.93;86.75
40794;BME280;26502;51.886;15.604;2023-02-11T16:17:23;101783.72;;;4.94;86.72
40794;BME280;26502;51.886;15.604;2023-02-11T16:22:34;101789.91;;;4.96;86.57
40794;BME280;26502;51.886;15.604;2023-02-11T16:27:50;101792.02;;;4.97;86.54
40794;BME280;26502;51.886;15.604;2023-02-11T16:33:01;101798.20;;;5.01;86.67
40794;BME280;26502;51.886;15.604;2023-02-11T16:38:17;101804.55;;;5.01;86.82
40794;BME280;26502;51.886;15.604;2023-02-11T16:43:28;101819.54;;;5.04;86.89
40794;BME280;26502;51.886;15.604;2023-02-11T16:48:40;101820.27;;;5.08;86.77
40794;BME280;26502;51.886;15.604;2023-02-11T16:53:54;101824.04;;;5.13;86.88
40794;BME280;26502;51.886;15.604;2023-02-11T16:59:04;101840.42;;;5.17;86.82
40794;BME280;26502;51.886;15.604;2023-02-11T17:04:22;101839.39;;;5.19;86.73
40794;BME280;26502;51.886;15.604;2023-02-11T17:09:31;101840.65;;;5.22;86.83
40794;BME280;26502;51.886;15.604;2023-02-11T17:14:42;101847.02;;;5.23;86.92
40794;BME280;26502;51.886;15.604;2023-02-11T17:19:57;101859.70;;;5.23;86.77
40794;BME280;26502;51.886;15.604;2023-02-11T17:25:08;101871.33;;;5.25;86.83
40794;BME280;26502;51.886;15.604;2023-02-11T17:30:19;101878.89;;;5.24;86.79
40794;BME280;26502;51.886;15.604;2023-02-11T17:35:29;101877.86;;;5.28;86.87
40794;BME280;26502;51.886;15.604;2023-02-11T17:40:41;101879.48;;;5.31;87.02
40794;BME280;26502;51.886;15.604;2023-02-11T17:45:51;101888.98;;;5.30;86.82
40794;BME280;26502;51.886;15.604;2023-02-11T17:51:00;101900.42;;;5.29;86.67
40794;BME280;26502;51.886;15.604;2023-02-11T17:56:10;101908.38;;;5.32;87.19
40794;BME280;26502;51.886;15.604;2023-02-11T18:01:20;101913.18;;;5.38;87.08
40794;BME280;26502;51.886;15.604;2023-02-11T18:06:31;101920.80;;;5.44;87.26
40794;BME280;26502;51.886;15.604;2023-02-11T18:11:43;101931.94;;;5.46;87.16
40794;BME280;26502;51.886;15.604;2023-02-11T18:16:53;101935.66;;;5.50;87.14
40794;BME280;26502;51.886;15.604;2023-02-11T18:22:10;101937.11;;;5.54;87.13
40794;BME280;26502;51.886;15.604;2023-02-11T18:27:30;101944.69;;;5.55;86.96
40794;BME280;26502;51.886;15.604;2023-02-11T18:32:41;101946.33;;;5.61;87.17
40794;BME280;26502;51.886;15.604;2023-02-11T18:37:50;101952.34;;;5.63;87.26
40794;BME280;26502;51.886;15.604;2023-02-11T18:43:04;101957.27;;;5.63;87.31
40794;BME280;26502;51.886;15.604;2023-02-11T18:48:11;101965.56;;;5.63;87.19
40794;BME280;26502;51.886;15.604;2023-02-11T18:53:21;101973.33;;;5.65;87.30
40794;BME280;26502;51.886;15.604;2023-02-11T18:58:31;101979.34;;;5.68;87.22
40794;BME280;26502;51.886;15.604;2023-02-11T19:03:43;101984.48;;;5.70;87.25
40794;BME280;26502;51.886;15.604;2023-02-11T19:08:56;101992.73;;;5.68;87.17
40794;BME280;26502;51.886;15.604;2023-02-11T19:14:08;101989.60;;;5.72;87.45
40794;BME280;26502;51.886;15.604;2023-02-11T19:19:20;101992.62;;;5.75;87.50
40794;BME280;26502;51.886;15.604;2023-02-11T19:24:33;102006.89;;;5.73;87.25
40794;BME280;26502;51.886;15.604;2023-02-11T19:29:43;102009.73;;;5.76;87.33
40794;BME280;26502;51.886;15.604;2023-02-11T19:34:54;102013.30;;;5.79;87.49
40794;BME280;26502;51.886;15.604;2023-02-11T19:40:04;102015.60;;;5.81;87.30
40794;BME280;26502;51.886;15.604;2023-02-11T19:45:15;102015.45;;;5.83;87.35
40794;BME280;26502;51.886;15.604;2023-02-11T19:50:26;102030.10;;;5.86;87.42
40794;BME280;26502;51.886;15.604;2023-02-11T19:55:37;102032.20;;;5.85;87.26
40794;BME280;26502;51.886;15.604;2023-02-11T20:01:02;102031.88;;;5.89;87.56
40794;BME280;26502;51.886;15.604;2023-02-11T20:06:14;102038.08;;;5.91;87.27
40794;BME280;26502;51.886;15.604;2023-02-11T20:11:24;102038.60;;;5.91;87.32
40794;BME280;26502;51.886;15.604;2023-02-11T20:16:35;102050.94;;;5.90;87.31
40794;BME280;26502;51.886;15.604;2023-02-11T20:21:47;102051.84;;;5.92;87.42
40794;BME280;26502;51.886;15.604;2023-02-11T20:26:58;102054.30;;;5.92;87.37
40794;BME280;26502;51.886;15.604;2023-02-11T20:32:09;102059.23;;;5.92;87.43
40794;BME280;26502;51.886;15.604;2023-02-11T20:37:22;102064.89;;;5.91;87.40
40794;BME280;26502;51.886;15.604;2023-02-11T20:42:33;102076.70;;;5.93;87.36
40794;BME280;26502;51.886;15.604;2023-02-11T20:47:45;102087.45;;;5.91;87.35
40794;BME280;26502;51.886;15.604;2023-02-11T20:52:58;102093.80;;;5.91;87.43
40794;BME280;26502;51.886;15.604;2023-02-11T20:58:08;102084.64;;;5.93;87.20
40794;BME280;26502;51.886;15.604;2023-02-11T21:03:19;102106.87;;;5.94;87.24
40794;BME280;26502;51.886;15.604;2023-02-11T21:08:29;102119.00;;;5.90;87.38
40794;BME280;26502;51.886;15.604;2023-02-11T21:19:09;102120.55;;;5.86;87.32
40794;BME280;26502;51.886;15.604;2023-02-11T21:24:18;102130.98;;;5.88;87.41
40794;BME280;26502;51.886;15.604;2023-02-11T21:29:32;102129.21;;;5.88;87.38
40794;BME280;26502;51.886;15.604;2023-02-11T21:34:43;102140.65;;;5.86;87.45
40794;BME280;26502;51.886;15.604;2023-02-11T21:39:55;102148.92;;;5.85;87.40
40794;BME280;26502;51.886;15.604;2023-02-11T21:45:08;102153.52;;;5.88;87.48
40794;BME280;26502;51.886;15.604;2023-02-11T21:50:23;102165.55;;;5.91;87.55
40794;BME280;26502;51.886;15.604;2023-02-11T21:55:32;102178.98;;;5.94;87.43
40794;BME280;26502;51.886;15.604;2023-02-11T22:00:43;102199.63;;;5.95;87.27
40794;BME280;26502;51.886;15.604;2023-02-11T22:05:52;102206.67;;;5.94;87.30
40794;BME280;26502;51.886;15.604;2023-02-11T22:11:05;102205.40;;;5.91;87.34
40794;BME280;26502;51.886;15.604;2023-02-11T22:16:15;102205.39;;;5.89;87.35
40794;BME280;26502;51.886;15.604;2023-02-11T22:21:23;102201.21;;;5.79;87.18
40794;BME280;26502;51.886;15.604;2023-02-11T22:26:31;102205.58;;;5.75;87.33
40794;BME280;26502;51.886;15.604;2023-02-11T22:31:40;102204.13;;;5.71;87.32
40794;BME280;26502;51.886;15.604;2023-02-11T22:36:50;102216.29;;;5.72;87.23
40794;BME280;26502;51.886;15.604;2023-02-11T22:41:58;102227.23;;;5.72;87.42
40794;BME280;26502;51.886;15.604;2023-02-11T22:47:06;102227.02;;;5.69;87.30
40794;BME280;26502;51.886;15.604;2023-02-11T22:52:14;102233.66;;;5.65;87.33
40794;BME280;26502;51.886;15.604;2023-02-11T22:57:22;102236.84;;;5.65;87.43
40794;BME280;26502;51.886;15.604;2023-02-11T23:02:29;102238.61;;;5.66;87.50
40794;BME280;26502;51.886;15.604;2023-02-11T23:07:37;102247.73;;;5.63;87.34
40794;BME280;26502;51.886;15.604;2023-02-11T23:12:44;102250.30;;;5.58;87.28
40794;BME280;26502;51.886;15.604;2023-02-11T23:17:53;102251.91;;;5.59;87.61
40794;BME280;26502;51.886;15.604;2023-02-11T23:23:03;102253.00;;;5.62;87.38
40794;BME280;26502;51.886;15.604;2023-02-11T23:28:11;102254.93;;;5.62;87.43
40794;BME280;26502;51.886;15.604;2023-02-11T23:33:18;102253.14;;;5.59;87.36
40794;BME280;26502;51.886;15.604;2023-02-11T23:38:26;102244.48;;;5.57;87.42
40794;BME280;26502;51.886;15.604;2023-02-11T23:43:33;102248.41;;;5.48;87.38
40794;BME280;26502;51.886;15.604;2023-02-11T23:48:42;102259.14;;;5.46;87.31
40794;BME280;26502;51.886;15.604;2023-02-11T23:53:50;102271.47;;;5.46;87.21
40794;BME280;26502;51.886;15.604;2023-02-11T23:59:00;102283.64;;;5.47;87.27
